This is the latest recevied weather packets stored in our database for station/object K2RMB. If no packets are shown the sender has not sent any weather packets the latest 10 day(s).
| Time | Temp. | Humidity | Pressure | Rain* | Wind** | Luminosity | Snow |
|---|---|---|---|---|---|---|---|
| 1777771406 | 4.44° C | 65% | 1013.3 hPa | 0 mm | - | 0 W/m² | - |
| 1777770799 | 4.44° C | 61% | 1013.6 hPa | 0 mm | - | 0 W/m² | - |
| 1777769283 | 5.56° C | 55% | 1012.9 hPa | 0 mm | - | 0 W/m² | - |
| 1777768981 | 5.56° C | 53% | 1012.9 hPa | 0 mm | - | 0 W/m² | - |
| 1777768678 | 5.56° C | 56% | 1012.9 hPa | 0 mm | - | 0 W/m² | - |
| 1777768375 | 5.56° C | 57% | 1012.9 hPa | 0 mm | - | 0 W/m² | - |
| 1777767161 | 6.67° C | 50% | 1012.9 hPa | 0 mm | - | 0 W/m² | - |
| 1777766859 | 7.22° C | 49% | 1012.5 hPa | 0 mm | - | 1 W/m² | - |
| 1777766253 | 7.22° C | 47% | 1012.9 hPa | 0 mm | - | 3 W/m² | - |
| 1777765951 | 7.22° C | 48% | 1012.9 hPa | 0 mm | - | 4 W/m² | - |
| 1777765647 | 7.22° C | 47% | 1012.9 hPa | 0 mm | - | 7 W/m² | - |
| 1777765040 | 7.78° C | 45% | 1012.9 hPa | 0 mm | - | 14 W/m² | - |
| 1777764737 | 7.78° C | 46% | 1012.5 hPa | 0 mm | - | 16 W/m² | - |
| 1777764432 | 7.78° C | 45% | 1012.5 hPa | 0 mm | - | 20 W/m² | - |
| 1777764130 | 8.33° C | 45% | 1012.5 hPa | 0 mm | - | 23 W/m² | - |
| 1777763827 | 8.33° C | 43% | 1012.5 hPa | 0 mm | - | 25 W/m² | - |
| 1777761707 | 8.89° C | 44% | 1011.8 hPa | 0 mm | - | 42 W/m² | - |
| 1777761405 | 8.89° C | 42% | 1011.8 hPa | 0 mm | - | 43 W/m² | - |
| 1777761103 | 8.89° C | 41% | 1011.8 hPa | 0 mm | - | 49 W/m² | - |
| 1777760800 | 8.89° C | 41% | 1011.8 hPa | 0 mm | - | 53 W/m² | - |
| 1777760496 | 9.44° C | 41% | 1011.8 hPa | 0 mm | - | 81 W/m² | - |
| 1777760192 | 10° C | 41% | 1011.8 hPa | 0 mm | - | 96 W/m² | - |
| 1777759889 | 9.44° C | 42% | 1011.8 hPa | 0 mm | - | 124 W/m² | - |
| 1777759586 | 9.44° C | 41% | 1011.8 hPa | 0 mm | - | 158 W/m² | - |
| 1777759282 | 9.44° C | 41% | 1011.8 hPa | 0 mm | - | 187 W/m² | - |
* Rain latest hour (hover to see other rain measurements)
** Current wind speed in m/s (hover to see current wind gust speed)